Time;durP1;ratioP1;P1;durP2;ratioP2;P2;SDS_P1;SDS_P2;PMS_P1;PMS_P2;Temp;Humidity;BMP_temperature;BMP_pressure;BME280_temperature;BME280_humidity;BME280_pressure;Samples;Min_cycle;Max_cycle;Signal;HPM_P1;HPM_P2
2022/04/26 03:37:05;;;;;;;2.35;1.50;;;15.60;65.70;;;;;;4982608;28;20053;-76
2022/04/26 03:39:33;;;;;;;1.80;1.33;;;15.60;65.90;;;;;;4999071;28;20042;-76
2022/04/26 03:42:03;;;;;;;2.72;1.30;;;15.60;65.50;;;;;;5000376;28;20064;-76
2022/04/26 03:44:43;;;;;;;2.28;1.40;;;15.60;65.50;;;;;;4998386;28;20057;-76
2022/04/26 03:47:13;;;;;;;2.05;1.40;;;15.60;65.50;;;;;;4970428;28;20584;-76
2022/04/26 03:49:44;;;;;;;1.95;1.40;;;15.60;65.60;;;;;;5001851;28;20041;-76
2022/04/26 03:52:16;;;;;;;1.70;1.08;;;15.60;65.40;;;;;;5007744;28;20048;-76
2022/04/26 03:54:53;;;;;;;1.58;1.20;;;15.60;65.60;;;;;;5001952;28;20052;-76
2022/04/26 03:57:29;;;;;;;1.70;1.20;;;15.60;65.50;;;;;;4978898;28;20049;-76
2022/04/26 03:59:56;;;;;;;2.78;1.33;;;15.60;65.40;;;;;;4997902;28;20069;-76
2022/04/26 04:02:23;;;;;;;1.30;1.10;;;15.60;65.40;;;;;;5008212;28;20062;-76
2022/04/26 04:04:50;;;;;;;1.65;1.20;;;15.50;65.40;;;;;;4994642;28;20077;-76
2022/04/26 04:07:36;;;;;;;1.98;1.23;;;15.50;65.20;;;;;;5000720;28;20609;-76
2022/04/26 04:10:05;;;;;;;1.90;1.30;;;15.60;65.40;;;;;;5003282;28;20121;-77
2022/04/26 04:12:32;;;;;;;2.03;1.30;;;15.50;65.40;;;;;;4982705;28;20152;-76
2022/04/26 04:15:10;;;;;;;1.80;1.30;;;15.50;65.40;;;;;;4997349;28;20516;-76
2022/04/26 04:17:53;;;;;;;1.70;1.17;;;15.50;65.20;;;;;;4990815;28;20061;-76
2022/04/26 04:20:22;;;;;;;1.70;1.20;;;15.50;65.40;;;;;;5000432;28;20041;-76
2022/04/26 04:22:55;;;;;;;1.80;1.27;;;15.50;65.30;;;;;;4989040;28;20042;-76
2022/04/26 04:25:42;;;;;;;1.55;1.10;;;15.50;65.20;;;;;;4995048;28;20179;-77
2022/04/26 04:28:13;;;;;;;2.75;1.42;;;15.50;65.20;;;;;;5001712;28;20054;-76
2022/04/26 04:30:52;;;;;;;1.63;1.13;;;15.60;65.50;;;;;;4982849;28;20046;-76
2022/04/26 04:33:27;;;;;;;1.67;1.30;;;15.50;65.20;;;;;;5003916;28;20045;-76
2022/04/26 04:36:02;;;;;;;1.70;1.25;;;15.50;65.20;;;;;;4983199;28;20157;-76
2022/04/26 04:38:32;;;;;;;1.90;1.40;;;15.50;65.10;;;;;;4983404;28;20054;-76
2022/04/26 04:41:00;;;;;;;1.83;1.30;;;15.50;65.10;;;;;;4975593;28;20137;-76
2022/04/26 04:43:32;;;;;;;2.53;1.45;;;15.50;65.10;;;;;;5000652;28;20056;-76
2022/04/26 04:46:13;;;;;;;2.23;1.17;;;15.50;65.30;;;;;;5001138;28;20556;-76
2022/04/26 04:48:41;;;;;;;1.70;1.20;;;15.50;65.20;;;;;;5001762;28;20124;-76
2022/04/26 04:51:08;;;;;;;1.67;1.20;;;15.50;65.10;;;;;;5012096;28;20038;-76
2022/04/26 04:53:53;;;;;;;2.65;1.20;;;15.50;65.00;;;;;;5002926;28;20535;-76
2022/04/26 04:56:24;;;;;;;1.65;1.10;;;15.50;65.00;;;;;;4983409;28;20049;-76
2022/04/26 04:58:52;;;;;;;1.65;1.20;;;15.50;65.20;;;;;;4996187;28;22004;-76
2022/04/26 05:01:19;;;;;;;1.83;1.10;;;15.50;65.10;;;;;;5011587;28;20045;-76
2022/04/26 05:03:54;;;;;;;2.03;1.15;;;15.50;65.10;;;;;;4994142;28;20061;-76
2022/04/26 05:06:28;;;;;;;1.60;1.10;;;15.50;65.20;;;;;;4985715;28;20096;-76
2022/04/26 05:09:13;;;;;;;1.50;0.90;;;15.50;65.20;;;;;;4997559;28;20053;-76
2022/04/26 05:11:51;;;;;;;1.73;0.93;;;15.50;65.10;;;;;;5023433;28;20037;-76
2022/04/26 05:14:18;;;;;;;1.48;1.00;;;15.50;65.00;;;;;;4998588;28;20041;-76
2022/04/26 05:17:02;;;;;;;1.30;1.00;;;15.50;65.00;;;;;;5016078;28;20050;-76
2022/04/26 05:19:32;;;;;;;1.50;1.00;;;15.50;65.10;;;;;;5001679;28;20053;-76
2022/04/26 05:22:02;;;;;;;1.55;0.93;;;15.50;65.20;;;;;;4988556;28;20046;-75
2022/04/26 05:27:16;;;;;;;2.65;1.10;;;15.50;65.10;;;;;;4995644;28;20045;-75
2022/04/26 05:29:52;;;;;;;2.33;1.10;;;15.50;65.20;;;;;;4988014;28;20049;-75
2022/04/26 05:32:22;;;;;;;2.85;1.20;;;15.50;65.40;;;;;;4985341;28;20454;-76
2022/04/26 05:34:56;;;;;;;1.88;1.02;;;15.50;65.20;;;;;;5000828;28;20124;-77
2022/04/26 05:37:42;;;;;;;2.03;1.17;;;15.40;65.20;;;;;;5000880;28;20053;-76
2022/04/26 05:40:10;;;;;;;2.22;1.10;;;15.50;65.20;;;;;;5003593;28;20050;-76
2022/04/26 05:42:43;;;;;;;1.92;1.20;;;15.50;65.20;;;;;;5013202;28;20037;-75
2022/04/26 05:45:10;;;;;;;1.67;1.20;;;15.50;65.00;;;;;;5006534;28;20101;-76
2022/04/26 05:47:42;;;;;;;1.83;1.10;;;15.50;65.00;;;;;;5006882;28;20128;-77
2022/04/26 05:50:14;;;;;;;2.10;1.10;;;15.50;65.00;;;;;;4978706;28;20128;-76
2022/04/26 05:52:41;;;;;;;1.48;1.10;;;15.50;65.20;;;;;;4984495;28;20053;-76
2022/04/26 05:55:09;;;;;;;2.45;1.30;;;15.50;65.10;;;;;;4980748;28;20441;-76
2022/04/26 05:57:46;;;;;;;1.85;1.30;;;15.50;65.80;;;;;;5005189;28;20046;-76
2022/04/26 06:00:15;;;;;;;2.05;1.02;;;15.40;65.10;;;;;;4999884;28;20042;-76
2022/04/26 06:02:45;;;;;;;2.13;1.23;;;15.50;65.00;;;;;;5004536;28;20452;-76
2022/04/26 06:05:14;;;;;;;2.08;1.20;;;15.50;64.90;;;;;;5000995;28;20037;-76
2022/04/26 06:07:41;;;;;;;1.70;1.10;;;15.40;64.80;;;;;;5003754;28;20449;-76
2022/04/26 06:10:14;;;;;;;2.67;1.20;;;15.40;64.80;;;;;;4999581;28;20034;-76
2022/04/26 06:12:44;;;;;;;2.42;1.30;;;15.50;65.20;;;;;;5002496;28;20046;-76
2022/04/26 06:15:17;;;;;;;1.70;1.10;;;15.50;65.00;;;;;;5003150;28;20077;-76
2022/04/26 06:17:44;;;;;;;2.28;1.30;;;15.50;65.70;;;;;;4995027;28;20050;-76
2022/04/26 06:20:12;;;;;;;1.75;1.00;;;15.50;64.70;;;;;;5001559;28;20046;-76
2022/04/26 06:22:39;;;;;;;1.40;1.00;;;15.40;65.10;;;;;;4997164;28;20046;-76
2022/04/26 06:25:12;;;;;;;1.33;1.00;;;15.40;65.00;;;;;;4998524;28;20484;-76
2022/04/26 06:27:48;;;;;;;2.03;1.10;;;15.50;65.00;;;;;;4995926;28;20131;-76
2022/04/26 06:30:17;;;;;;;1.70;1.10;;;15.50;65.20;;;;;;4988203;28;20057;-76
2022/04/26 06:32:53;;;;;;;2.85;1.30;;;15.50;65.00;;;;;;4997712;28;20121;-76
2022/04/26 06:35:20;;;;;;;1.95;1.20;;;15.40;65.00;;;;;;5001178;28;20077;-77
2022/04/26 06:37:47;;;;;;;2.05;1.10;;;15.40;64.90;;;;;;4991287;28;20132;-76
2022/04/26 06:40:14;;;;;;;2.83;1.30;;;15.40;65.00;;;;;;5003318;28;20111;-76
2022/04/26 06:42:43;;;;;;;1.50;1.10;;;15.40;64.90;;;;;;4984418;28;20041;-82
2022/04/26 06:45:14;;;;;;;2.08;1.23;;;15.40;64.90;;;;;;4993561;28;20477;-75
2022/04/26 06:47:43;;;;;;;2.20;1.08;;;15.50;64.90;;;;;;4993166;28;20051;-75
2022/04/26 06:50:12;;;;;;;2.65;1.30;;;15.50;65.00;;;;;;4982580;28;20133;-76
2022/04/26 06:52:39;;;;;;;2.45;1.30;;;15.50;64.90;;;;;;4983807;28;20137;-75
2022/04/26 06:55:14;;;;;;;2.45;1.35;;;15.50;65.20;;;;;;4988277;28;20542;-75
2022/04/26 06:57:47;;;;;;;2.92;1.48;;;15.50;65.30;;;;;;5003111;28;20049;-75
2022/04/26 07:00:15;;;;;;;5.22;1.92;;;15.50;65.40;;;;;;4998362;28;20038;-76
2022/04/26 07:02:51;;;;;;;2.58;1.25;;;15.50;65.40;;;;;;5017489;28;20049;-77
2022/04/26 07:05:21;;;;;;;2.47;1.30;;;15.40;65.20;;;;;;5011175;28;20046;-76
2022/04/26 07:07:52;;;;;;;3.03;1.70;;;15.50;65.40;;;;;;5002497;28;20488;-75
2022/04/26 07:10:22;;;;;;;1.85;1.20;;;15.50;65.30;;;;;;5005472;28;20054;-75
2022/04/26 07:12:49;;;;;;;2.60;1.40;;;15.40;65.20;;;;;;5007456;28;20056;-77
2022/04/26 07:15:16;;;;;;;3.50;1.63;;;15.40;65.20;;;;;;5005194;28;20038;-76
2022/04/26 07:17:46;;;;;;;2.47;1.50;;;15.40;65.30;;;;;;5001718;28;20050;-76
2022/04/26 07:20:15;;;;;;;2.55;1.52;;;15.40;65.20;;;;;;5003964;28;20045;-78
2022/04/26 07:22:45;;;;;;;6.95;1.75;;;15.50;65.40;;;;;;4985226;28;20129;-74
2022/04/26 07:25:14;;;;;;;2.30;1.55;;;15.50;65.40;;;;;;5006808;28;20045;-75
2022/04/26 07:27:41;;;;;;;2.97;1.45;;;15.50;65.50;;;;;;5000108;28;20049;-77
2022/04/26 07:30:14;;;;;;;8.02;1.98;;;15.50;65.50;;;;;;4992809;28;20046;-75
2022/04/26 07:35:46;;;;;;;5.45;1.90;;;15.50;65.40;;;;;;5001033;28;20050;-75
2022/04/26 07:38:14;;;;;;;8.45;1.98;;;15.50;65.40;;;;;;4999381;28;20045;-74
2022/04/26 07:40:51;;;;;;;8.60;2.90;;;15.50;65.70;;;;;;5002683;28;20492;-73
2022/04/26 07:43:30;;;;;;;13.25;3.28;;;15.40;65.60;;;;;;5010580;28;20045;-73
2022/04/26 07:45:58;;;;;;;9.48;2.97;;;15.40;65.60;;;;;;5001334;28;20125;-73
2022/04/26 07:48:26;;;;;;;19.23;4.40;;;15.40;65.60;;;;;;5001768;28;20053;-73
2022/04/26 07:51:03;;;;;;;18.95;4.85;;;15.30;65.80;;;;;;4985647;28;20412;-79
2022/04/26 07:53:32;;;;;;;108.43;18.50;;;15.30;67.10;;;;;;4984224;28;20042;-79
2022/04/26 07:55:58;;;;;;;37.92;8.77;;;15.10;66.50;;;;;;5007978;28;20789;-77
2022/04/26 07:58:26;;;;;;;14.38;5.82;;;15.10;66.20;;;;;;5000821;28;20042;-81
2022/04/26 08:00:53;;;;;;;14.30;5.07;;;15.20;65.90;;;;;;5003006;28;20519;-81
2022/04/26 08:03:27;;;;;;;14.88;4.60;;;15.20;65.70;;;;;;5002143;28;20054;-78
2022/04/26 08:05:53;;;;;;;13.05;4.20;;;15.30;65.70;;;;;;5005533;28;20097;-79
2022/04/26 08:08:23;;;;;;;12.20;4.10;;;15.30;66.50;;;;;;5002647;28;20452;-76
2022/04/26 08:10:56;;;;;;;9.27;3.83;;;15.30;65.70;;;;;;4990650;28;20041;-78
2022/04/26 08:13:26;;;;;;;10.52;3.90;;;15.30;65.70;;;;;;4991908;28;20049;-80
2022/04/26 08:15:53;;;;;;;10.60;4.00;;;15.40;65.60;;;;;;4990939;28;20425;-78
2022/04/26 08:18:20;;;;;;;10.50;3.80;;;15.40;65.70;;;;;;4995305;28;20085;-76
2022/04/26 08:20:47;;;;;;;10.20;3.50;;;15.30;65.50;;;;;;5015414;28;20037;-77
2022/04/26 08:23:15;;;;;;;7.57;3.40;;;15.40;65.40;;;;;;5026360;28;20060;-78
2022/04/26 08:28:30;;;;;;;8.57;3.30;;;15.40;65.60;;;;;;4994717;28;20049;-76
2022/04/26 08:30:57;;;;;;;11.30;3.33;;;15.40;65.40;;;;;;4998431;28;20404;-76
2022/04/26 08:33:24;;;;;;;9.50;3.78;;;15.40;65.70;;;;;;4986789;28;20046;-79
2022/04/26 08:36:12;;;;;;;11.57;3.58;;;15.40;65.70;;;;;;5006741;28;20058;-75
2022/04/26 08:38:41;;;;;;;11.65;3.40;;;15.40;65.80;;;;;;4993162;28;20057;-79
2022/04/26 08:41:09;;;;;;;10.48;3.47;;;15.40;65.80;;;;;;4991624;28;20182;-78
2022/04/26 08:43:39;;;;;;;8.38;2.80;;;15.40;65.60;;;;;;4988157;28;20120;-76
2022/04/26 08:46:08;;;;;;;8.30;3.10;;;15.40;65.90;;;;;;4991337;28;20049;-78
2022/04/26 08:51:22;;;;;;;5.97;2.92;;;15.40;65.70;;;;;;4988493;28;20176;-78
2022/04/26 08:53:51;;;;;;;10.77;3.55;;;15.40;65.90;;;;;;5000796;28;20052;-77
2022/04/26 08:56:20;;;;;;;12.55;3.08;;;15.40;65.80;;;;;;4985961;28;20053;-78
2022/04/26 08:58:52;;;;;;;8.82;3.00;;;15.40;65.80;;;;;;5003401;28;20359;-77
2022/04/26 09:01:24;;;;;;;5.05;3.00;;;15.40;65.70;;;;;;5005681;28;20045;-79
2022/04/26 09:03:56;;;;;;;6.88;2.80;;;15.50;65.80;;;;;;4980561;28;20061;-78
2022/04/26 09:06:36;;;;;;;6.20;2.60;;;15.50;65.80;;;;;;4993512;28;20466;-78
2022/04/26 09:09:08;;;;;;;7.45;3.08;;;15.50;65.80;;;;;;5029308;28;20046;-79
2022/04/26 09:11:38;;;;;;;5.65;3.13;;;15.50;65.80;;;;;;5022407;28;20081;-79
2022/04/26 09:14:30;;;;;;;5.22;2.60;;;15.50;65.80;;;;;;5007255;28;20049;-78
2022/04/26 09:17:07;;;;;;;4.32;2.70;;;15.50;65.80;;;;;;5005031;28;20045;-78
2022/04/26 09:19:46;;;;;;;8.30;2.90;;;15.50;65.80;;;;;;4982790;28;20050;-79
2022/04/26 09:22:18;;;;;;;6.18;2.83;;;15.50;65.80;;;;;;4991246;28;20489;-80
2022/04/26 09:24:57;;;;;;;5.40;2.78;;;15.50;65.70;;;;;;5001610;28;20489;-78
2022/04/26 09:27:29;;;;;;;7.70;2.55;;;15.50;65.70;;;;;;4998509;28;20050;-79
2022/04/26 09:29:55;;;;;;;6.82;2.78;;;15.50;65.70;;;;;;5001211;28;20146;-78
2022/04/26 09:32:23;;;;;;;5.85;2.70;;;15.50;65.70;;;;;;4989445;28;20049;-77
2022/04/26 09:34:50;;;;;;;5.25;2.50;;;15.50;65.80;;;;;;5002425;28;20097;-77
2022/04/26 09:37:30;;;;;;;5.75;2.78;;;15.60;65.80;;;;;;4996344;28;20045;-78
2022/04/26 09:40:02;;;;;;;8.63;2.55;;;15.70;66.10;;;;;;5001039;28;20049;-77
2022/04/26 09:42:31;;;;;;;5.38;2.75;;;15.60;65.80;;;;;;5002283;28;20366;-79
2022/04/26 09:45:07;;;;;;;6.18;2.78;;;15.60;65.80;;;;;;4981282;28;20050;-79
2022/04/26 09:47:36;;;;;;;5.90;2.50;;;15.60;65.70;;;;;;5004707;28;20050;-77
2022/04/26 09:50:15;;;;;;;7.60;2.70;;;15.60;65.80;;;;;;5001169;28;20425;-80
2022/04/26 09:52:56;;;;;;;5.47;3.13;;;15.60;65.80;;;;;;5003123;28;20404;-77
2022/04/26 09:55:24;;;;;;;5.13;2.97;;;15.60;65.90;;;;;;4994252;28;20042;-78
2022/04/26 09:57:55;;;;;;;6.18;3.03;;;15.50;66.00;;;;;;4998856;28;20304;-78
2022/04/26 10:00:27;;;;;;;8.35;3.38;;;15.60;66.20;;;;;;4997578;28;20127;-80
2022/04/26 10:03:16;;;;;;;7.72;3.22;;;15.60;66.20;;;;;;5004964;28;20132;-80
2022/04/26 10:05:45;;;;;;;6.90;3.50;;;15.60;66.10;;;;;;4996675;28;20053;-78
2022/04/26 10:08:16;;;;;;;6.38;4.07;;;15.60;66.70;;;;;;5004196;28;20117;-79
2022/04/26 10:10:51;;;;;;;8.60;3.40;;;15.60;66.30;;;;;;4989072;28;20069;-78
2022/04/26 10:13:39;;;;;;;7.80;3.50;;;15.60;66.30;;;;;;4986865;28;20050;-82
2022/04/26 10:16:21;;;;;;;10.10;4.32;;;15.60;66.30;;;;;;4994821;28;20140;-79
2022/04/26 10:19:03;;;;;;;12.48;3.60;;;15.60;66.50;;;;;;5005742;28;20132;-82
2022/04/26 10:21:49;;;;;;;8.35;3.30;;;15.60;67.30;;;;;;5002504;28;20088;-80
2022/04/26 10:24:30;;;;;;;10.23;3.80;;;15.70;66.70;;;;;;4999407;28;20030;-83
2022/04/26 10:27:23;;;;;;;14.20;3.33;;;15.70;66.50;;;;;;4983695;28;20053;-80
2022/04/26 10:29:53;;;;;;;11.73;3.13;;;15.70;66.40;;;;;;5000956;28;20034;-80
2022/04/26 10:32:34;;;;;;;9.60;2.97;;;15.70;66.40;;;;;;5005256;28;20038;-79
2022/04/26 10:35:30;;;;;;;14.07;3.42;;;15.70;66.40;;;;;;5000366;28;20228;-85
2022/04/26 10:38:09;;;;;;;11.68;3.25;;;15.70;66.30;;;;;;5008116;28;20049;-81
2022/04/26 10:41:08;;;;;;;9.07;3.22;;;15.70;66.30;;;;;;4997836;28;20034;-80
2022/04/26 10:44:26;;;;;;;7.97;2.92;;;15.70;66.30;;;;;;5003349;28;20042;-79
2022/04/26 10:47:23;;;;;;;8.27;2.83;;;15.70;66.20;;;;;;4993089;28;20073;-82
2022/04/26 10:49:52;;;;;;;5.97;2.60;;;15.70;66.20;;;;;;5003253;28;20030;-79
2022/04/26 10:52:43;;;;;;;12.13;2.58;;;15.70;66.20;;;;;;4990370;28;20057;-80
2022/04/26 10:55:14;;;;;;;;;;;15.70;66.20;;;;;;5004440;28;20400;-78
2022/04/26 10:57:51;;;;;;;5.32;2.40;;;15.70;66.10;;;;;;5005661;28;19921;-81
2022/04/26 11:00:37;;;;;;;4.25;2.30;;;15.70;66.00;;;;;;4994080;28;20504;-79
2022/04/26 11:03:08;;;;;;;7.13;2.80;;;15.70;66.00;;;;;;5029574;28;20125;-79
2022/04/26 11:05:35;;;;;;;5.47;2.50;;;15.70;66.00;;;;;;4984599;28;20078;-78
2022/04/26 11:08:06;;;;;;;4.95;2.42;;;15.70;65.80;;;;;;5020558;28;20045;-81
2022/04/26 11:13:20;;;;;;;5.03;2.40;;;15.70;65.90;;;;;;4999964;28;20038;-79
2022/04/26 11:16:12;;;;;;;5.35;2.20;;;15.70;65.80;;;;;;4978668;28;20073;-79
2022/04/26 11:18:43;;;;;;;5.22;2.30;;;15.70;65.80;;;;;;5000706;28;20049;-80
2022/04/26 11:21:14;;;;;;;5.28;2.50;;;15.80;66.00;;;;;;4989808;28;20440;-81
2022/04/26 11:29:26;;;;;;;8.85;2.60;;;15.80;65.80;;;;;;4991566;28;20042;-80
2022/04/26 11:31:54;;;;;;;6.65;2.60;;;15.80;65.70;;;;;;4996653;28;20242;-79
2022/04/26 11:34:49;;;;;;;8.48;2.75;;;15.70;65.20;;;;;;4982985;28;20046;-80
2022/04/26 11:37:16;;;;;;;5.13;3.15;;;15.70;65.30;;;;;;4982773;28;20045;-81
2022/04/26 11:39:49;;;;;;;6.53;2.72;;;15.80;65.40;;;;;;4982142;28;20050;-80
2022/04/26 11:42:16;;;;;;;5.50;2.40;;;15.80;65.60;;;;;;4976434;28;20141;-79
2022/04/26 11:45:02;;;;;;;8.13;2.70;;;15.80;65.50;;;;;;5001662;28;20050;-80
2022/04/26 11:47:53;;;;;;;6.35;2.78;;;15.90;65.60;;;;;;5000483;28;20074;-80
2022/04/26 11:50:23;;;;;;;5.55;2.45;;;15.80;65.30;;;;;;4973944;28;20062;-82
2022/04/26 11:52:55;;;;;;;6.95;2.55;;;15.80;65.40;;;;;;4982649;28;20057;-81
2022/04/26 11:55:29;;;;;;;6.47;2.50;;;15.80;65.40;;;;;;4988757;28;20045;-80
2022/04/26 11:58:14;;;;;;;4.25;2.40;;;15.80;65.30;;;;;;4998285;28;20041;-79
2022/04/26 12:01:00;;;;;;;4.45;2.42;;;15.80;65.40;;;;;;4983842;28;20042;-80
2022/04/26 12:03:30;;;;;;;5.00;2.30;;;15.90;65.40;;;;;;4989335;28;20081;-80
2022/04/26 12:06:12;;;;;;;4.45;2.22;;;15.90;65.40;;;;;;4984492;28;20055;-79
2022/04/26 12:08:42;;;;;;;4.25;2.00;;;15.80;65.30;;;;;;4976535;28;20046;-79
2022/04/26 12:11:16;;;;;;;6.53;1.92;;;15.80;65.30;;;;;;4995451;28;20481;-79
2022/04/26 12:13:44;;;;;;;4.90;2.20;;;15.80;65.30;;;;;;4985158;28;20041;-80
2022/04/26 12:16:18;;;;;;;4.22;2.33;;;15.90;65.40;;;;;;4998583;28;20046;-79
2022/04/26 12:18:53;;;;;;;4.68;2.40;;;15.80;65.30;;;;;;4999013;28;20129;-80
2022/04/26 12:21:22;;;;;;;4.85;2.55;;;15.80;65.30;;;;;;4998731;28;20460;-79
2022/04/26 12:24:10;;;;;;;3.45;2.25;;;15.80;65.00;;;;;;5008006;28;20049;-78
2022/04/26 12:26:37;;;;;;;6.03;2.03;;;15.90;65.10;;;;;;5006682;28;20132;-79
2022/04/26 12:29:14;;;;;;;6.30;2.08;;;15.80;65.00;;;;;;4982851;28;20042;-79
2022/04/26 12:31:47;;;;;;;5.28;2.03;;;15.90;65.10;;;;;;4996975;28;20473;-80
2022/04/26 12:34:17;;;;;;;4.15;2.03;;;15.80;64.90;;;;;;5002377;28;20057;-79
2022/04/26 12:37:00;;;;;;;4.10;2.15;;;15.90;65.00;;;;;;4978511;28;20136;-82
2022/04/26 12:39:30;;;;;;;7.75;2.30;;;15.80;64.80;;;;;;4983327;28;20065;-77
2022/04/26 12:41:59;;;;;;;3.88;2.10;;;15.80;64.70;;;;;;4997657;28;20057;-78
2022/04/26 12:44:53;;;;;;;4.57;2.10;;;15.80;64.70;;;;;;4996067;28;20257;-80
2022/04/26 12:50:29;;;;;;;5.78;2.25;;;15.80;65.50;;;;;;4987570;28;20101;-80
2022/04/26 12:53:00;;;;;;;7.68;2.03;;;15.80;64.80;;;;;;4985179;28;20045;-80
2022/04/26 12:55:45;;;;;;;8.88;2.13;;;15.80;64.70;;;;;;4997921;28;20046;-78
2022/04/26 12:58:15;;;;;;;9.77;2.25;;;15.80;64.60;;;;;;4982182;28;20038;-80
2022/04/26 13:00:54;;;;;;;7.82;2.45;;;15.80;64.80;;;;;;5007435;28;20042;-81
2022/04/26 13:03:31;;;;;;;9.32;2.13;;;15.80;64.60;;;;;;4972288;28;20046;-79
2022/04/26 13:06:10;;;;;;;6.45;1.90;;;15.80;64.70;;;;;;5002388;28;20042;-80
2022/04/26 13:08:42;;;;;;;6.00;2.20;;;15.80;64.50;;;;;;4997504;28;20066;-80
2022/04/26 13:11:12;;;;;;;3.60;1.88;;;15.80;64.50;;;;;;4986163;28;20050;-80
2022/04/26 13:13:57;;;;;;;3.47;1.67;;;15.90;64.70;;;;;;4982065;28;20034;-84
2022/04/26 13:16:24;;;;;;;6.35;2.20;;;15.90;64.80;;;;;;4978812;28;20180;-83
2022/04/26 13:18:51;;;;;;;5.55;2.00;;;15.90;64.80;;;;;;4978361;28;20064;-81
2022/04/26 13:21:28;;;;;;;8.55;1.70;;;15.90;64.60;;;;;;4978753;28;20560;-83
2022/04/26 13:24:16;;;;;;;6.15;2.00;;;15.90;64.60;;;;;;4982112;28;20101;-83
2022/04/26 13:26:47;;;;;;;3.65;1.58;;;15.90;64.60;;;;;;4989903;28;20052;-81
2022/04/26 13:29:14;;;;;;;5.65;1.80;;;16.00;64.70;;;;;;4975076;28;20062;-79
2022/04/26 13:31:44;;;;;;;3.92;1.88;;;15.90;64.80;;;;;;4988862;28;20074;-80
2022/04/26 13:34:14;;;;;;;4.10;1.63;;;15.90;64.60;;;;;;4984045;28;20097;-79
2022/04/26 13:36:43;;;;;;;4.15;1.70;;;15.80;64.60;;;;;;4980292;28;20042;-80
2022/04/26 13:39:15;;;;;;;4.50;1.58;;;15.80;65.30;;;;;;4976922;28;20053;-78
2022/04/26 13:41:45;;;;;;;12.07;1.85;;;15.90;64.70;;;;;;4974534;28;20042;-80
2022/04/26 13:44:12;;;;;;;6.85;2.08;;;15.90;64.70;;;;;;4977178;28;20046;-80
2022/04/26 13:46:39;;;;;;;4.75;1.73;;;15.90;64.50;;;;;;4987993;28;20042;-81
2022/04/26 13:49:14;;;;;;;6.45;1.77;;;15.90;64.40;;;;;;4979156;28;20046;-79
2022/04/26 13:51:41;;;;;;;3.95;1.50;;;15.90;64.50;;;;;;4979817;28;20043;-79
2022/04/26 13:54:15;;;;;;;4.82;1.88;;;15.90;64.50;;;;;;4972613;28;20053;-79
2022/04/26 13:56:43;;;;;;;5.93;1.70;;;15.90;64.40;;;;;;4984520;28;20113;-77
2022/04/26 13:59:14;;;;;;;3.85;1.75;;;15.90;64.40;;;;;;4982673;28;20050;-78
2022/04/26 14:01:44;;;;;;;3.28;1.77;;;15.90;64.30;;;;;;4980966;28;20046;-79
2022/04/26 14:04:14;;;;;;;5.95;1.92;;;15.90;64.30;;;;;;4979526;28;20056;-78
2022/04/26 14:06:41;;;;;;;3.53;1.73;;;15.90;64.20;;;;;;4983693;28;20530;-78
2022/04/26 14:09:18;;;;;;;8.80;1.67;;;15.90;64.20;;;;;;4986444;28;20141;-79
2022/04/26 14:11:47;;;;;;;2.67;1.40;;;15.90;64.20;;;;;;5002616;28;20442;-78
2022/04/26 14:22:46;;;;;;;5.20;1.77;;;15.90;64.20;;;;;;5001607;28;20050;-78
2022/04/26 14:25:15;;;;;;;5.55;1.75;;;15.90;64.10;;;;;;4998015;28;20752;-78
2022/04/26 14:27:44;;;;;;;3.45;1.70;;;15.90;64.10;;;;;;5000244;28;20072;-80
2022/04/26 14:30:16;;;;;;;2.88;1.73;;;15.90;64.00;;;;;;5003773;28;20050;-78
2022/04/26 14:32:44;;;;;;;2.75;1.60;;;15.90;63.90;;;;;;5001864;28;20038;-78
2022/04/26 14:35:14;;;;;;;4.80;1.75;;;15.90;63.90;;;;;;5002651;28;20146;-77
2022/04/26 14:37:49;;;;;;;3.35;1.70;;;15.90;64.00;;;;;;5000390;28;20045;-79
2022/04/26 14:40:17;;;;;;;4.43;1.70;;;15.90;63.80;;;;;;4992225;28;20117;-79
2022/04/26 14:42:46;;;;;;;4.20;1.83;;;15.80;63.70;;;;;;4992251;28;20527;-77
2022/04/26 14:45:14;;;;;;;3.85;1.70;;;15.90;63.80;;;;;;4994834;28;20104;-77
2022/04/26 14:47:45;;;;;;;4.72;1.60;;;15.90;63.90;;;;;;5000657;28;20061;-78
2022/04/26 14:50:15;;;;;;;3.28;1.55;;;15.90;63.80;;;;;;4981960;28;20046;-76
2022/04/26 14:52:45;;;;;;;3.55;1.67;;;15.90;63.80;;;;;;4998956;28;20091;-78
2022/04/26 14:55:14;;;;;;;3.60;1.60;;;15.90;63.80;;;;;;4995560;28;20129;-80
2022/04/26 14:57:42;;;;;;;3.22;1.80;;;15.90;63.80;;;;;;4994700;28;20045;-78
2022/04/26 15:00:15;;;;;;;3.70;1.60;;;15.90;63.60;;;;;;4994018;28;20044;-78
2022/04/26 15:02:47;;;;;;;2.97;1.55;;;15.90;63.70;;;;;;4998955;28;20081;-81
2022/04/26 15:05:14;;;;;;;2.92;1.50;;;15.90;63.60;;;;;;4995470;28;20033;-78
2022/04/26 15:10:53;;;;;;;2.42;1.48;;;15.90;63.70;;;;;;4991531;28;20119;-79
2022/04/26 15:18:53;;;;;;;3.53;1.83;;;15.90;63.60;;;;;;4995716;28;20114;-78
2022/04/26 15:21:39;;;;;;;2.70;1.50;;;15.80;63.40;;;;;;4990820;28;20282;-78
2022/04/26 15:24:06;;;;;;;3.30;1.50;;;15.90;63.40;;;;;;4970794;28;20042;-80
2022/04/26 15:26:39;;;;;;;3.40;1.52;;;15.90;63.40;;;;;;4986492;28;20127;-78
2022/04/26 15:29:16;;;;;;;4.30;1.65;;;15.90;63.50;;;;;;4988021;28;20046;-77
2022/04/26 15:31:50;;;;;;;2.55;1.48;;;15.90;63.30;;;;;;4993085;28;20490;-78
2022/04/26 15:34:17;;;;;;;3.28;1.63;;;15.90;63.30;;;;;;4989798;28;20042;-77
2022/04/26 15:36:44;;;;;;;3.60;1.48;;;15.90;63.30;;;;;;4991740;28;20038;-78
2022/04/26 15:39:14;;;;;;;2.20;1.58;;;15.90;63.40;;;;;;4973130;28;20062;-77
2022/04/26 15:41:41;;;;;;;3.30;1.50;;;15.90;63.30;;;;;;4988518;28;20107;-77
2022/04/26 15:44:18;;;;;;;3.70;1.50;;;15.90;63.30;;;;;;4989428;28;20084;-78
2022/04/26 15:46:47;;;;;;;3.72;1.63;;;15.90;63.10;;;;;;4988851;28;20049;-80
2022/04/26 15:49:14;;;;;;;2.50;1.60;;;15.90;63.10;;;;;;4988144;28;20603;-79
2022/04/26 15:51:44;;;;;;;3.55;1.60;;;15.90;63.10;;;;;;4992748;28;20034;-76
2022/04/26 15:54:15;;;;;;;3.97;1.20;;;15.80;63.00;;;;;;4990227;28;20048;-77
2022/04/26 15:56:43;;;;;;;2.90;1.50;;;15.90;63.10;;;;;;4987522;28;20046;-79
2022/04/26 15:59:15;;;;;;;2.50;1.45;;;15.80;62.90;;;;;;4990246;28;20061;-79
2022/04/26 16:01:42;;;;;;;2.78;1.50;;;15.90;63.10;;;;;;4979399;28;20053;-79
2022/04/26 16:04:14;;;;;;;2.70;1.50;;;15.90;63.10;;;;;;4990778;28;20046;-76
2022/04/26 16:06:42;;;;;;;2.30;1.50;;;15.90;63.00;;;;;;4975925;28;20057;-77
2022/04/26 16:20:56;;;;;;;1.85;1.20;;;15.90;62.80;;;;;;5001629;28;20060;-78
2022/04/26 16:23:23;;;;;;;3.22;1.38;;;15.90;62.70;;;;;;5005594;28;20040;-78
2022/04/26 16:25:50;;;;;;;2.90;1.50;;;15.90;62.80;;;;;;5013413;28;20060;-78
2022/04/26 16:28:17;;;;;;;4.03;1.50;;;15.90;62.70;;;;;;4977714;28;20081;-79
2022/04/26 16:30:46;;;;;;;2.80;1.42;;;15.90;62.70;;;;;;4989975;28;20715;-76
2022/04/26 16:33:15;;;;;;;2.08;1.27;;;15.90;62.60;;;;;;4994273;28;20042;-77
2022/04/26 16:35:42;;;;;;;1.95;1.30;;;15.90;62.50;;;;;;4993787;28;20046;-79
2022/04/26 16:38:17;;;;;;;2.28;1.40;;;15.90;62.70;;;;;;4978142;28;20041;-78
2022/04/26 16:40:44;;;;;;;1.90;1.20;;;15.90;62.50;;;;;;4986718;28;20046;-77
2022/04/26 16:43:16;;;;;;;2.25;1.40;;;15.90;62.50;;;;;;4994877;28;20068;-80
2022/04/26 16:45:43;;;;;;;1.90;1.25;;;15.90;62.50;;;;;;5008143;28;20098;-78
2022/04/26 16:48:19;;;;;;;2.90;1.50;;;15.90;62.50;;;;;;4982232;28;20485;-76
2022/04/26 16:50:47;;;;;;;3.63;1.60;;;15.90;62.50;;;;;;4977961;28;20505;-75
2022/04/26 16:53:14;;;;;;;2.28;1.30;;;15.90;62.50;;;;;;4968987;28;20058;-77
2022/04/26 16:55:41;;;;;;;2.47;1.23;;;15.90;62.50;;;;;;4980173;28;20149;-79
2022/04/26 16:58:16;;;;;;;2.70;1.40;;;15.90;62.50;;;;;;5006711;28;20046;-78
2022/04/26 17:00:44;;;;;;;1.83;1.30;;;15.90;62.50;;;;;;5014217;28;20060;-76
2022/04/26 17:03:16;;;;;;;1.98;1.10;;;15.90;62.40;;;;;;5009064;28;20053;-81
2022/04/26 17:05:46;;;;;;;3.50;1.20;;;15.90;62.50;;;;;;4976106;28;20050;-78
2022/04/26 17:08:15;;;;;;;4.17;1.30;;;15.90;62.70;;;;;;4991040;28;20073;-78
2022/04/26 17:10:43;;;;;;;2.25;1.30;;;15.90;62.50;;;;;;4976157;28;20440;-76
2022/04/26 17:13:15;;;;;;;5.28;1.33;;;15.90;63.30;;;;;;4972596;28;20062;-80
2022/04/26 17:15:43;;;;;;;3.25;1.45;;;15.90;62.50;;;;;;4969439;28;20513;-80
2022/04/26 17:18:15;;;;;;;2.85;1.48;;;15.90;62.40;;;;;;4994284;28;20042;-79
2022/04/26 17:20:42;;;;;;;3.97;1.40;;;15.90;62.50;;;;;;4978676;28;20456;-78
2022/04/26 17:23:09;;;;;;;4.28;1.27;;;15.90;62.50;;;;;;4976941;28;20053;-78
2022/04/26 17:25:37;;;;;;;5.55;1.50;;;16.00;62.60;;;;;;4980911;28;20038;-80
2022/04/26 17:28:14;;;;;;;2.42;1.20;;;15.90;62.50;;;;;;4979818;28;20187;-78
2022/04/26 17:30:41;;;;;;;3.10;1.20;;;15.80;62.40;;;;;;4995482;28;20052;-79
2022/04/26 17:33:16;;;;;;;2.00;1.25;;;15.90;62.60;;;;;;4995500;28;20038;-79
2022/04/26 17:35:46;;;;;;;1.88;1.08;;;15.80;62.50;;;;;;4994570;28;20130;-78
2022/04/26 17:38:14;;;;;;;2.28;1.40;;;15.90;62.60;;;;;;4990113;28;20049;-76
2022/04/26 17:40:47;;;;;;;2.35;1.30;;;15.90;62.60;;;;;;4985535;28;20061;-81